sensor_id;sensor_type;location;lat;lon;timestamp;temperature;humidity
23116;DHT22;11727;52.134;5.052;2023-06-10T00:00:22;21.40;99.90
23116;DHT22;11727;52.134;5.052;2023-06-10T00:02:48;21.30;99.90
23116;DHT22;11727;52.134;5.052;2023-06-10T00:05:13;21.30;99.90
23116;DHT22;11727;52.134;5.052;2023-06-10T00:07:40;21.30;99.90
23116;DHT22;11727;52.134;5.052;2023-06-10T00:10:06;21.30;99.90
23116;DHT22;11727;52.134;5.052;2023-06-10T00:12:32;21.20;99.90
23116;DHT22;11727;52.134;5.052;2023-06-10T00:15:06;21.20;99.90
23116;DHT22;11727;52.134;5.052;2023-06-10T00:17:32;21.20;99.90
23116;DHT22;11727;52.134;5.052;2023-06-10T00:19:58;21.10;99.90
23116;DHT22;11727;52.134;5.052;2023-06-10T00:22:24;21.10;99.90
23116;DHT22;11727;52.134;5.052;2023-06-10T00:24:55;21.10;99.90
23116;DHT22;11727;52.134;5.052;2023-06-10T00:27:21;21.10;99.90
23116;DHT22;11727;52.134;5.052;2023-06-10T00:29:46;21.00;99.90
23116;DHT22;11727;52.134;5.052;2023-06-10T00:32:12;21.00;99.90
23116;DHT22;11727;52.134;5.052;2023-06-10T00:34:38;20.90;99.90
23116;DHT22;11727;52.134;5.052;2023-06-10T00:37:03;21.00;99.90
23116;DHT22;11727;52.134;5.052;2023-06-10T00:39:29;20.90;99.90
23116;DHT22;11727;52.134;5.052;2023-06-10T00:41:54;20.90;99.90
23116;DHT22;11727;52.134;5.052;2023-06-10T00:44:20;20.80;99.90
23116;DHT22;11727;52.134;5.052;2023-06-10T00:46:46;20.80;99.90
23116;DHT22;11727;52.134;5.052;2023-06-10T00:49:12;20.80;99.90
23116;DHT22;11727;52.134;5.052;2023-06-10T00:51:38;20.80;99.90
23116;DHT22;11727;52.134;5.052;2023-06-10T00:54:05;20.80;99.90
23116;DHT22;11727;52.134;5.052;2023-06-10T00:56:31;20.70;99.90
23116;DHT22;11727;52.134;5.052;2023-06-10T00:58:58;20.70;99.90
23116;DHT22;11727;52.134;5.052;2023-06-10T01:01:24;20.60;99.90
23116;DHT22;11727;52.134;5.052;2023-06-10T01:03:50;20.60;99.90
23116;DHT22;11727;52.134;5.052;2023-06-10T01:09:08;20.50;99.90
23116;DHT22;11727;52.134;5.052;2023-06-10T01:12:23;20.50;99.90
23116;DHT22;11727;52.134;5.052;2023-06-10T01:14:29;20.40;99.90
23116;DHT22;11727;52.134;5.052;2023-06-10T01:16:57;20.40;99.90
23116;DHT22;11727;52.134;5.052;2023-06-10T01:19:23;20.40;99.90
23116;DHT22;11727;52.134;5.052;2023-06-10T01:21:50;20.40;99.90
23116;DHT22;11727;52.134;5.052;2023-06-10T01:24:17;20.30;99.90
23116;DHT22;11727;52.134;5.052;2023-06-10T01:26:47;20.30;99.90
23116;DHT22;11727;52.134;5.052;2023-06-10T01:29:24;20.30;99.90
23116;DHT22;11727;52.134;5.052;2023-06-10T01:32:01;20.20;99.90
23116;DHT22;11727;52.134;5.052;2023-06-10T01:34:31;20.10;99.90
23116;DHT22;11727;52.134;5.052;2023-06-10T01:36:58;20.10;99.90
23116;DHT22;11727;52.134;5.052;2023-06-10T01:39:24;20.10;99.90
23116;DHT22;11727;52.134;5.052;2023-06-10T01:41:52;20.10;99.90
23116;DHT22;11727;52.134;5.052;2023-06-10T01:44:22;20.00;99.90
23116;DHT22;11727;52.134;5.052;2023-06-10T01:46:48;20.00;99.90
23116;DHT22;11727;52.134;5.052;2023-06-10T01:49:14;19.90;99.90
23116;DHT22;11727;52.134;5.052;2023-06-10T01:51:39;19.90;99.90
23116;DHT22;11727;52.134;5.052;2023-06-10T01:54:05;19.90;99.90
23116;DHT22;11727;52.134;5.052;2023-06-10T01:56:32;19.90;99.90
23116;DHT22;11727;52.134;5.052;2023-06-10T01:58:57;19.80;99.90
23116;DHT22;11727;52.134;5.052;2023-06-10T02:01:28;19.80;99.90
23116;DHT22;11727;52.134;5.052;2023-06-10T02:03:53;19.80;99.90
23116;DHT22;11727;52.134;5.052;2023-06-10T02:06:19;19.80;99.90
23116;DHT22;11727;52.134;5.052;2023-06-10T02:08:44;19.80;99.90
23116;DHT22;11727;52.134;5.052;2023-06-10T02:11:10;19.70;99.90
23116;DHT22;11727;52.134;5.052;2023-06-10T02:13:36;19.70;99.90
23116;DHT22;11727;52.134;5.052;2023-06-10T02:16:01;19.60;99.90
23116;DHT22;11727;52.134;5.052;2023-06-10T02:18:27;19.60;99.90
23116;DHT22;11727;52.134;5.052;2023-06-10T02:20:53;19.60;99.90
23116;DHT22;11727;52.134;5.052;2023-06-10T02:23:19;19.60;99.90
23116;DHT22;11727;52.134;5.052;2023-06-10T02:25:45;19.60;99.90
23116;DHT22;11727;52.134;5.052;2023-06-10T02:28:12;19.50;99.90
23116;DHT22;11727;52.134;5.052;2023-06-10T02:30:41;19.50;99.90
23116;DHT22;11727;52.134;5.052;2023-06-10T02:33:07;19.40;99.90
23116;DHT22;11727;52.134;5.052;2023-06-10T02:35:38;19.40;99.90
23116;DHT22;11727;52.134;5.052;2023-06-10T02:38:04;19.40;99.90
23116;DHT22;11727;52.134;5.052;2023-06-10T02:40:30;19.40;99.90
23116;DHT22;11727;52.134;5.052;2023-06-10T02:42:56;19.40;99.90
23116;DHT22;11727;52.134;5.052;2023-06-10T02:45:21;19.30;99.90
23116;DHT22;11727;52.134;5.052;2023-06-10T02:47:47;19.30;99.90
23116;DHT22;11727;52.134;5.052;2023-06-10T02:50:13;19.30;99.90
23116;DHT22;11727;52.134;5.052;2023-06-10T02:52:38;19.20;99.90
23116;DHT22;11727;52.134;5.052;2023-06-10T02:55:04;19.20;99.90
23116;DHT22;11727;52.134;5.052;2023-06-10T02:57:30;19.20;99.90
23116;DHT22;11727;52.134;5.052;2023-06-10T02:59:56;19.10;99.90
23116;DHT22;11727;52.134;5.052;2023-06-10T03:02:24;19.10;99.90
23116;DHT22;11727;52.134;5.052;2023-06-10T03:04:56;19.10;99.90
23116;DHT22;11727;52.134;5.052;2023-06-10T03:07:22;19.10;99.90
23116;DHT22;11727;52.134;5.052;2023-06-10T03:09:48;19.10;99.90
23116;DHT22;11727;52.134;5.052;2023-06-10T03:12:14;19.00;99.90
23116;DHT22;11727;52.134;5.052;2023-06-10T03:14:41;19.00;99.90
23116;DHT22;11727;52.134;5.052;2023-06-10T03:17:07;19.00;99.90
23116;DHT22;11727;52.134;5.052;2023-06-10T03:19:34;19.00;99.90
23116;DHT22;11727;52.134;5.052;2023-06-10T03:22:13;19.00;99.90
23116;DHT22;11727;52.134;5.052;2023-06-10T03:24:39;18.90;99.90
23116;DHT22;11727;52.134;5.052;2023-06-10T03:27:08;18.90;99.90
23116;DHT22;11727;52.134;5.052;2023-06-10T03:29:37;18.90;99.90
23116;DHT22;11727;52.134;5.052;2023-06-10T03:32:03;18.80;99.90
23116;DHT22;11727;52.134;5.052;2023-06-10T03:34:29;18.80;99.90
23116;DHT22;11727;52.134;5.052;2023-06-10T03:36:58;18.80;99.90
23116;DHT22;11727;52.134;5.052;2023-06-10T03:39:24;18.80;99.90
23116;DHT22;11727;52.134;5.052;2023-06-10T03:41:51;18.80;99.90
23116;DHT22;11727;52.134;5.052;2023-06-10T03:44:17;18.80;99.90
23116;DHT22;11727;52.134;5.052;2023-06-10T03:46:42;18.80;99.90
23116;DHT22;11727;52.134;5.052;2023-06-10T03:49:08;18.80;99.90
23116;DHT22;11727;52.134;5.052;2023-06-10T03:51:35;18.80;99.90
23116;DHT22;11727;52.134;5.052;2023-06-10T03:54:01;18.80;99.90
23116;DHT22;11727;52.134;5.052;2023-06-10T03:56:26;18.80;99.90
23116;DHT22;11727;52.134;5.052;2023-06-10T03:58:52;18.80;99.90
23116;DHT22;11727;52.134;5.052;2023-06-10T04:01:17;18.80;99.90
23116;DHT22;11727;52.134;5.052;2023-06-10T04:03:46;18.80;99.90
23116;DHT22;11727;52.134;5.052;2023-06-10T04:06:14;18.80;99.90
23116;DHT22;11727;52.134;5.052;2023-06-10T04:08:39;18.80;99.90
23116;DHT22;11727;52.134;5.052;2023-06-10T04:11:05;18.80;99.90
23116;DHT22;11727;52.134;5.052;2023-06-10T04:13:31;18.80;99.90
23116;DHT22;11727;52.134;5.052;2023-06-10T04:15:57;18.80;99.90
23116;DHT22;11727;52.134;5.052;2023-06-10T04:18:22;18.80;99.90
23116;DHT22;11727;52.134;5.052;2023-06-10T04:20:48;18.80;99.90
23116;DHT22;11727;52.134;5.052;2023-06-10T04:23:14;18.80;99.90
23116;DHT22;11727;52.134;5.052;2023-06-10T04:25:39;18.80;99.90
23116;DHT22;11727;52.134;5.052;2023-06-10T04:28:05;18.80;99.90
23116;DHT22;11727;52.134;5.052;2023-06-10T04:30:30;18.80;99.90
23116;DHT22;11727;52.134;5.052;2023-06-10T04:32:57;18.80;99.90
23116;DHT22;11727;52.134;5.052;2023-06-10T04:35:22;18.90;99.90
23116;DHT22;11727;52.134;5.052;2023-06-10T04:37:48;18.80;99.90
23116;DHT22;11727;52.134;5.052;2023-06-10T04:40:13;18.80;99.90
23116;DHT22;11727;52.134;5.052;2023-06-10T04:42:41;18.90;99.90
23116;DHT22;11727;52.134;5.052;2023-06-10T04:45:07;18.90;99.90
23116;DHT22;11727;52.134;5.052;2023-06-10T04:47:33;19.00;99.90
23116;DHT22;11727;52.134;5.052;2023-06-10T04:50:00;19.00;99.90
23116;DHT22;11727;52.134;5.052;2023-06-10T04:52:26;19.00;99.90
23116;DHT22;11727;52.134;5.052;2023-06-10T04:54:52;19.00;99.90
23116;DHT22;11727;52.134;5.052;2023-06-10T04:57:19;19.10;99.90
23116;DHT22;11727;52.134;5.052;2023-06-10T04:59:45;19.20;99.90
23116;DHT22;11727;52.134;5.052;2023-06-10T05:02:11;19.20;99.90
23116;DHT22;11727;52.134;5.052;2023-06-10T05:04:37;19.20;99.90
23116;DHT22;11727;52.134;5.052;2023-06-10T05:07:02;19.30;99.90
23116;DHT22;11727;52.134;5.052;2023-06-10T05:09:28;19.30;99.90
23116;DHT22;11727;52.134;5.052;2023-06-10T05:11:54;19.40;99.90
23116;DHT22;11727;52.134;5.052;2023-06-10T05:14:19;19.40;99.90
23116;DHT22;11727;52.134;5.052;2023-06-10T05:16:47;19.50;99.90
23116;DHT22;11727;52.134;5.052;2023-06-10T05:19:12;19.60;99.90
23116;DHT22;11727;52.134;5.052;2023-06-10T05:21:38;19.60;99.90
23116;DHT22;11727;52.134;5.052;2023-06-10T05:24:04;19.70;99.90
23116;DHT22;11727;52.134;5.052;2023-06-10T05:26:29;19.70;99.90
23116;DHT22;11727;52.134;5.052;2023-06-10T05:28:57;19.80;99.90
23116;DHT22;11727;52.134;5.052;2023-06-10T05:31:22;19.80;99.90
23116;DHT22;11727;52.134;5.052;2023-06-10T05:33:48;19.90;99.90
23116;DHT22;11727;52.134;5.052;2023-06-10T05:36:14;20.00;99.90
23116;DHT22;11727;52.134;5.052;2023-06-10T05:38:39;20.10;99.90
23116;DHT22;11727;52.134;5.052;2023-06-10T05:41:05;20.10;99.90
23116;DHT22;11727;52.134;5.052;2023-06-10T05:43:30;20.20;99.90
23116;DHT22;11727;52.134;5.052;2023-06-10T05:45:56;20.30;99.90
23116;DHT22;11727;52.134;5.052;2023-06-10T05:48:21;20.40;99.90
23116;DHT22;11727;52.134;5.052;2023-06-10T05:50:47;20.50;99.90
23116;DHT22;11727;52.134;5.052;2023-06-10T05:53:14;20.50;99.90
23116;DHT22;11727;52.134;5.052;2023-06-10T05:55:44;20.60;99.90
23116;DHT22;11727;52.134;5.052;2023-06-10T05:58:10;20.70;99.90
23116;DHT22;11727;52.134;5.052;2023-06-10T06:00:38;20.80;99.90
23116;DHT22;11727;52.134;5.052;2023-06-10T06:03:05;20.90;99.90
23116;DHT22;11727;52.134;5.052;2023-06-10T06:05:30;21.00;99.90
23116;DHT22;11727;52.134;5.052;2023-06-10T06:08:01;21.10;99.90
23116;DHT22;11727;52.134;5.052;2023-06-10T06:10:27;21.20;99.90
23116;DHT22;11727;52.134;5.052;2023-06-10T06:12:52;21.30;99.90
23116;DHT22;11727;52.134;5.052;2023-06-10T06:15:18;21.40;99.90
23116;DHT22;11727;52.134;5.052;2023-06-10T06:17:44;21.50;99.90
23116;DHT22;11727;52.134;5.052;2023-06-10T06:20:10;21.50;99.90
23116;DHT22;11727;52.134;5.052;2023-06-10T06:22:35;21.60;99.90
23116;DHT22;11727;52.134;5.052;2023-06-10T06:25:01;21.80;99.90
23116;DHT22;11727;52.134;5.052;2023-06-10T06:27:27;21.80;99.90
23116;DHT22;11727;52.134;5.052;2023-06-10T06:29:53;22.00;99.90
23116;DHT22;11727;52.134;5.052;2023-06-10T06:32:18;22.10;99.90
23116;DHT22;11727;52.134;5.052;2023-06-10T06:34:44;22.30;99.90
23116;DHT22;11727;52.134;5.052;2023-06-10T06:37:10;22.40;99.90
23116;DHT22;11727;52.134;5.052;2023-06-10T06:39:35;22.50;99.90
23116;DHT22;11727;52.134;5.052;2023-06-10T06:42:01;22.70;99.90
23116;DHT22;11727;52.134;5.052;2023-06-10T06:44:27;22.70;99.90
23116;DHT22;11727;52.134;5.052;2023-06-10T06:46:52;22.90;99.90
23116;DHT22;11727;52.134;5.052;2023-06-10T06:49:18;23.00;99.90
23116;DHT22;11727;52.134;5.052;2023-06-10T06:51:43;23.20;99.90
23116;DHT22;11727;52.134;5.052;2023-06-10T06:54:09;23.30;99.90
23116;DHT22;11727;52.134;5.052;2023-06-10T06:56:35;23.40;99.90
23116;DHT22;11727;52.134;5.052;2023-06-10T06:59:00;23.50;99.90
23116;DHT22;11727;52.134;5.052;2023-06-10T07:01:26;23.60;99.90
23116;DHT22;11727;52.134;5.052;2023-06-10T07:03:51;23.80;99.90
23116;DHT22;11727;52.134;5.052;2023-06-10T07:06:17;23.90;99.90
23116;DHT22;11727;52.134;5.052;2023-06-10T07:08:43;24.00;99.90
23116;DHT22;11727;52.134;5.052;2023-06-10T07:11:08;24.20;99.90
23116;DHT22;11727;52.134;5.052;2023-06-10T07:13:34;24.30;99.90
23116;DHT22;11727;52.134;5.052;2023-06-10T07:15:59;24.40;99.90
23116;DHT22;11727;52.134;5.052;2023-06-10T07:18:25;24.50;99.90
23116;DHT22;11727;52.134;5.052;2023-06-10T07:20:51;24.60;99.90
23116;DHT22;11727;52.134;5.052;2023-06-10T07:23:16;24.70;99.90
23116;DHT22;11727;52.134;5.052;2023-06-10T07:25:42;24.80;99.90
23116;DHT22;11727;52.134;5.052;2023-06-10T07:28:07;24.90;99.90
23116;DHT22;11727;52.134;5.052;2023-06-10T07:30:33;25.00;99.90
23116;DHT22;11727;52.134;5.052;2023-06-10T07:32:59;25.00;99.90
23116;DHT22;11727;52.134;5.052;2023-06-10T07:35:25;25.10;99.90
23116;DHT22;11727;52.134;5.052;2023-06-10T07:37:51;25.30;99.90
23116;DHT22;11727;52.134;5.052;2023-06-10T07:40:17;25.30;99.90
23116;DHT22;11727;52.134;5.052;2023-06-10T07:42:42;25.40;99.90
23116;DHT22;11727;52.134;5.052;2023-06-10T07:45:08;25.50;99.90
23116;DHT22;11727;52.134;5.052;2023-06-10T07:47:34;25.50;99.90
23116;DHT22;11727;52.134;5.052;2023-06-10T07:50:00;25.70;99.90
23116;DHT22;11727;52.134;5.052;2023-06-10T07:52:26;25.80;99.90
23116;DHT22;11727;52.134;5.052;2023-06-10T07:54:53;25.90;99.90
23116;DHT22;11727;52.134;5.052;2023-06-10T07:57:19;26.10;99.90
23116;DHT22;11727;52.134;5.052;2023-06-10T07:59:45;26.10;99.90
23116;DHT22;11727;52.134;5.052;2023-06-10T08:02:10;26.20;99.90
23116;DHT22;11727;52.134;5.052;2023-06-10T08:04:36;26.30;99.90
23116;DHT22;11727;52.134;5.052;2023-06-10T08:07:02;26.40;99.90
23116;DHT22;11727;52.134;5.052;2023-06-10T08:09:28;26.40;99.90
23116;DHT22;11727;52.134;5.052;2023-06-10T08:11:53;26.50;99.90
23116;DHT22;11727;52.134;5.052;2023-06-10T08:14:19;26.70;99.90
23116;DHT22;11727;52.134;5.052;2023-06-10T08:16:45;26.80;99.90
23116;DHT22;11727;52.134;5.052;2023-06-10T08:19:11;27.00;99.90
23116;DHT22;11727;52.134;5.052;2023-06-10T08:21:36;27.20;99.90
23116;DHT22;11727;52.134;5.052;2023-06-10T08:24:03;27.30;99.90
23116;DHT22;11727;52.134;5.052;2023-06-10T08:26:28;27.40;99.90
23116;DHT22;11727;52.134;5.052;2023-06-10T08:28:54;27.60;99.90
23116;DHT22;11727;52.134;5.052;2023-06-10T08:31:21;27.70;99.90
23116;DHT22;11727;52.134;5.052;2023-06-10T08:33:46;27.80;99.90
23116;DHT22;11727;52.134;5.052;2023-06-10T08:36:12;27.80;99.90
23116;DHT22;11727;52.134;5.052;2023-06-10T08:38:38;27.90;99.90
23116;DHT22;11727;52.134;5.052;2023-06-10T08:41:05;27.90;99.90
23116;DHT22;11727;52.134;5.052;2023-06-10T08:43:33;28.00;99.90
23116;DHT22;11727;52.134;5.052;2023-06-10T08:46:01;28.10;99.90
23116;DHT22;11727;52.134;5.052;2023-06-10T08:48:29;28.10;99.90
23116;DHT22;11727;52.134;5.052;2023-06-10T08:50:57;28.10;99.90
23116;DHT22;11727;52.134;5.052;2023-06-10T08:53:23;28.20;99.90
23116;DHT22;11727;52.134;5.052;2023-06-10T08:55:51;28.20;99.90
23116;DHT22;11727;52.134;5.052;2023-06-10T08:58:20;28.20;99.90
23116;DHT22;11727;52.134;5.052;2023-06-10T09:00:46;28.30;99.90
23116;DHT22;11727;52.134;5.052;2023-06-10T09:03:12;28.40;99.90
23116;DHT22;11727;52.134;5.052;2023-06-10T09:05:38;28.60;99.90
23116;DHT22;11727;52.134;5.052;2023-06-10T09:08:05;28.80;99.90
23116;DHT22;11727;52.134;5.052;2023-06-10T09:10:32;28.90;99.90
23116;DHT22;11727;52.134;5.052;2023-06-10T09:12:57;29.00;99.90
23116;DHT22;11727;52.134;5.052;2023-06-10T09:15:23;29.00;99.90
23116;DHT22;11727;52.134;5.052;2023-06-10T09:17:49;29.10;99.90
23116;DHT22;11727;52.134;5.052;2023-06-10T09:20:16;29.00;99.90
23116;DHT22;11727;52.134;5.052;2023-06-10T09:22:42;29.00;99.90
23116;DHT22;11727;52.134;5.052;2023-06-10T09:25:10;29.10;99.90
23116;DHT22;11727;52.134;5.052;2023-06-10T09:27:48;29.20;99.90
23116;DHT22;11727;52.134;5.052;2023-06-10T09:30:29;29.30;99.90
23116;DHT22;11727;52.134;5.052;2023-06-10T09:32:56;29.40;99.90
23116;DHT22;11727;52.134;5.052;2023-06-10T09:35:26;29.60;99.90
23116;DHT22;11727;52.134;5.052;2023-06-10T09:37:53;29.70;99.90
23116;DHT22;11727;52.134;5.052;2023-06-10T09:40:19;29.80;99.90
23116;DHT22;11727;52.134;5.052;2023-06-10T09:42:45;29.80;99.90
23116;DHT22;11727;52.134;5.052;2023-06-10T09:45:10;29.90;99.90
23116;DHT22;11727;52.134;5.052;2023-06-10T09:47:36;29.90;99.90
23116;DHT22;11727;52.134;5.052;2023-06-10T09:50:02;29.90;99.90
23116;DHT22;11727;52.134;5.052;2023-06-10T09:52:29;29.90;99.90
23116;DHT22;11727;52.134;5.052;2023-06-10T09:55:00;30.10;99.90
23116;DHT22;11727;52.134;5.052;2023-06-10T09:57:26;30.20;99.90
23116;DHT22;11727;52.134;5.052;2023-06-10T09:59:55;30.20;99.90
23116;DHT22;11727;52.134;5.052;2023-06-10T10:02:21;30.30;99.90
23116;DHT22;11727;52.134;5.052;2023-06-10T10:04:47;30.40;99.90
23116;DHT22;11727;52.134;5.052;2023-06-10T10:07:13;30.60;99.90
23116;DHT22;11727;52.134;5.052;2023-06-10T10:09:40;30.60;99.90
23116;DHT22;11727;52.134;5.052;2023-06-10T10:12:11;30.40;99.90
23116;DHT22;11727;52.134;5.052;2023-06-10T10:14:38;30.50;99.90
23116;DHT22;11727;52.134;5.052;2023-06-10T10:17:11;30.50;99.90
23116;DHT22;11727;52.134;5.052;2023-06-10T10:19:53;30.40;99.90
23116;DHT22;11727;52.134;5.052;2023-06-10T10:22:24;30.40;99.90
23116;DHT22;11727;52.134;5.052;2023-06-10T10:24:55;30.40;99.90
23116;DHT22;11727;52.134;5.052;2023-06-10T10:27:33;30.60;99.90
23116;DHT22;11727;52.134;5.052;2023-06-10T10:30:02;30.70;99.90
23116;DHT22;11727;52.134;5.052;2023-06-10T10:32:39;30.70;99.90
23116;DHT22;11727;52.134;5.052;2023-06-10T10:35:08;30.90;99.90
23116;DHT22;11727;52.134;5.052;2023-06-10T10:37:36;31.00;99.90
23116;DHT22;11727;52.134;5.052;2023-06-10T10:40:02;31.00;99.90
23116;DHT22;11727;52.134;5.052;2023-06-10T10:42:30;31.10;99.90
23116;DHT22;11727;52.134;5.052;2023-06-10T10:44:56;31.10;99.90
23116;DHT22;11727;52.134;5.052;2023-06-10T10:47:22;31.10;99.90
23116;DHT22;11727;52.134;5.052;2023-06-10T10:49:51;31.20;99.90
23116;DHT22;11727;52.134;5.052;2023-06-10T10:52:20;31.20;99.90
23116;DHT22;11727;52.134;5.052;2023-06-10T10:54:46;31.30;99.90
23116;DHT22;11727;52.134;5.052;2023-06-10T10:57:20;31.20;99.90
23116;DHT22;11727;52.134;5.052;2023-06-10T10:59:53;31.30;99.90
23116;DHT22;11727;52.134;5.052;2023-06-10T11:02:45;31.30;99.90
23116;DHT22;11727;52.134;5.052;2023-06-10T11:05:14;31.30;99.90
23116;DHT22;11727;52.134;5.052;2023-06-10T11:07:52;31.30;99.90
23116;DHT22;11727;52.134;5.052;2023-06-10T11:10:19;31.40;99.90
23116;DHT22;11727;52.134;5.052;2023-06-10T11:12:54;31.40;99.90
23116;DHT22;11727;52.134;5.052;2023-06-10T11:15:25;31.30;99.90
23116;DHT22;11727;52.134;5.052;2023-06-10T11:18:28;31.30;99.90
23116;DHT22;11727;52.134;5.052;2023-06-10T11:20:55;31.30;99.90
23116;DHT22;11727;52.134;5.052;2023-06-10T11:26:14;31.30;99.90
23116;DHT22;11727;52.134;5.052;2023-06-10T11:29:02;31.40;99.90
23116;DHT22;11727;52.134;5.052;2023-06-10T11:31:27;31.40;99.90
23116;DHT22;11727;52.134;5.052;2023-06-10T11:34:03;31.40;99.90
23116;DHT22;11727;52.134;5.052;2023-06-10T11:36:31;31.50;99.90
23116;DHT22;11727;52.134;5.052;2023-06-10T11:39:02;31.60;99.90
23116;DHT22;11727;52.134;5.052;2023-06-10T11:41:29;31.70;99.90
23116;DHT22;11727;52.134;5.052;2023-06-10T11:43:59;31.80;99.90
23116;DHT22;11727;52.134;5.052;2023-06-10T11:46:26;31.90;99.90
23116;DHT22;11727;52.134;5.052;2023-06-10T11:48:56;31.90;99.90
23116;DHT22;11727;52.134;5.052;2023-06-10T11:51:25;31.90;99.90
23116;DHT22;11727;52.134;5.052;2023-06-10T11:53:52;32.00;99.90
23116;DHT22;11727;52.134;5.052;2023-06-10T11:58:55;32.00;99.90
23116;DHT22;11727;52.134;5.052;2023-06-10T12:01:23;32.10;99.90
23116;DHT22;11727;52.134;5.052;2023-06-10T12:04:00;32.10;99.90
23116;DHT22;11727;52.134;5.052;2023-06-10T12:06:26;32.00;99.90
23116;DHT22;11727;52.134;5.052;2023-06-10T12:08:53;32.00;99.90
23116;DHT22;11727;52.134;5.052;2023-06-10T12:11:19;32.00;99.80
23116;DHT22;11727;52.134;5.052;2023-06-10T12:13:47;32.00;99.90
23116;DHT22;11727;52.134;5.052;2023-06-10T12:16:14;32.00;99.20
23116;DHT22;11727;52.134;5.052;2023-06-10T12:18:40;32.00;99.50
23116;DHT22;11727;52.134;5.052;2023-06-10T12:21:16;31.80;99.20
23116;DHT22;11727;52.134;5.052;2023-06-10T12:24:06;31.80;99.90
23116;DHT22;11727;52.134;5.052;2023-06-10T12:29:24;31.60;99.50
23116;DHT22;11727;52.134;5.052;2023-06-10T12:31:57;31.60;99.00
23116;DHT22;11727;52.134;5.052;2023-06-10T12:34:38;31.50;99.90
23116;DHT22;11727;52.134;5.052;2023-06-10T12:37:06;31.50;99.10
23116;DHT22;11727;52.134;5.052;2023-06-10T12:39:33;31.40;99.40
23116;DHT22;11727;52.134;5.052;2023-06-10T12:41:59;31.40;99.90
23116;DHT22;11727;52.134;5.052;2023-06-10T12:44:32;31.40;99.40
23116;DHT22;11727;52.134;5.052;2023-06-10T12:46:58;31.30;98.60
23116;DHT22;11727;52.134;5.052;2023-06-10T12:49:24;31.30;99.10
23116;DHT22;11727;52.134;5.052;2023-06-10T12:51:50;31.30;99.10
23116;DHT22;11727;52.134;5.052;2023-06-10T12:54:15;31.30;99.50
23116;DHT22;11727;52.134;5.052;2023-06-10T12:56:41;31.30;98.20
23116;DHT22;11727;52.134;5.052;2023-06-10T12:59:07;31.30;99.00
23116;DHT22;11727;52.134;5.052;2023-06-10T13:01:32;31.30;98.30
23116;DHT22;11727;52.134;5.052;2023-06-10T13:03:58;31.30;98.20
23116;DHT22;11727;52.134;5.052;2023-06-10T13:06:25;31.30;99.40
23116;DHT22;11727;52.134;5.052;2023-06-10T13:08:51;31.30;99.30
23116;DHT22;11727;52.134;5.052;2023-06-10T13:11:16;31.40;99.00
23116;DHT22;11727;52.134;5.052;2023-06-10T13:13:42;31.40;97.80
23116;DHT22;11727;52.134;5.052;2023-06-10T13:16:08;31.40;98.20
23116;DHT22;11727;52.134;5.052;2023-06-10T13:18:34;31.50;98.20
23116;DHT22;11727;52.134;5.052;2023-06-10T13:21:05;31.40;98.20
23116;DHT22;11727;52.134;5.052;2023-06-10T13:23:31;31.50;98.10
23116;DHT22;11727;52.134;5.052;2023-06-10T13:25:57;31.50;98.50
23116;DHT22;11727;52.134;5.052;2023-06-10T13:28:23;31.60;98.30
23116;DHT22;11727;52.134;5.052;2023-06-10T13:30:49;31.60;98.30
23116;DHT22;11727;52.134;5.052;2023-06-10T13:33:15;31.70;98.60
23116;DHT22;11727;52.134;5.052;2023-06-10T13:35:41;31.70;98.20
23116;DHT22;11727;52.134;5.052;2023-06-10T13:38:07;31.80;98.10
23116;DHT22;11727;52.134;5.052;2023-06-10T13:40:33;31.90;98.40
23116;DHT22;11727;52.134;5.052;2023-06-10T13:42:58;31.90;98.20
23116;DHT22;11727;52.134;5.052;2023-06-10T13:45:24;31.90;97.30
23116;DHT22;11727;52.134;5.052;2023-06-10T13:47:50;31.90;97.40
23116;DHT22;11727;52.134;5.052;2023-06-10T13:50:16;31.90;97.90
23116;DHT22;11727;52.134;5.052;2023-06-10T13:52:42;32.00;96.90
23116;DHT22;11727;52.134;5.052;2023-06-10T13:55:08;32.00;97.20
23116;DHT22;11727;52.134;5.052;2023-06-10T13:57:33;32.00;96.90
23116;DHT22;11727;52.134;5.052;2023-06-10T13:59:59;31.90;96.70
23116;DHT22;11727;52.134;5.052;2023-06-10T14:02:25;31.80;96.40
23116;DHT22;11727;52.134;5.052;2023-06-10T14:04:50;31.90;97.10
23116;DHT22;11727;52.134;5.052;2023-06-10T14:07:16;31.70;96.60
23116;DHT22;11727;52.134;5.052;2023-06-10T14:09:42;31.70;96.50
23116;DHT22;11727;52.134;5.052;2023-06-10T14:12:09;31.70;96.80
23116;DHT22;11727;52.134;5.052;2023-06-10T14:14:34;31.70;96.20
23116;DHT22;11727;52.134;5.052;2023-06-10T14:17:01;31.80;95.90
23116;DHT22;11727;52.134;5.052;2023-06-10T14:19:28;31.70;96.50
23116;DHT22;11727;52.134;5.052;2023-06-10T14:21:54;31.70;96.80
23116;DHT22;11727;52.134;5.052;2023-06-10T14:24:20;31.80;96.50
23116;DHT22;11727;52.134;5.052;2023-06-10T14:26:46;31.80;96.60
23116;DHT22;11727;52.134;5.052;2023-06-10T14:29:12;31.90;97.40
23116;DHT22;11727;52.134;5.052;2023-06-10T14:31:40;31.80;97.60
23116;DHT22;11727;52.134;5.052;2023-06-10T14:34:05;31.80;97.50
23116;DHT22;11727;52.134;5.052;2023-06-10T14:36:33;31.80;97.80
23116;DHT22;11727;52.134;5.052;2023-06-10T14:38:59;31.80;98.10
23116;DHT22;11727;52.134;5.052;2023-06-10T14:41:24;31.80;97.80
23116;DHT22;11727;52.134;5.052;2023-06-10T14:43:50;31.90;97.70
23116;DHT22;11727;52.134;5.052;2023-06-10T14:46:16;31.80;97.60
23116;DHT22;11727;52.134;5.052;2023-06-10T14:48:41;31.70;97.60
23116;DHT22;11727;52.134;5.052;2023-06-10T14:51:07;31.70;97.20
23116;DHT22;11727;52.134;5.052;2023-06-10T14:53:33;31.60;97.80
23116;DHT22;11727;52.134;5.052;2023-06-10T14:55:59;31.60;98.00
23116;DHT22;11727;52.134;5.052;2023-06-10T14:58:24;31.60;97.60
23116;DHT22;11727;52.134;5.052;2023-06-10T15:00:50;31.70;97.80
23116;DHT22;11727;52.134;5.052;2023-06-10T15:03:16;31.70;97.40
23116;DHT22;11727;52.134;5.052;2023-06-10T15:05:42;31.60;97.10
23116;DHT22;11727;52.134;5.052;2023-06-10T15:08:07;31.50;97.30
23116;DHT22;11727;52.134;5.052;2023-06-10T15:10:33;31.50;97.90
23116;DHT22;11727;52.134;5.052;2023-06-10T15:12:59;31.50;98.00
23116;DHT22;11727;52.134;5.052;2023-06-10T15:15:25;31.50;98.00
23116;DHT22;11727;52.134;5.052;2023-06-10T15:17:53;31.50;97.50
23116;DHT22;11727;52.134;5.052;2023-06-10T15:20:19;31.40;97.80
23116;DHT22;11727;52.134;5.052;2023-06-10T15:22:45;31.40;97.90
23116;DHT22;11727;52.134;5.052;2023-06-10T15:25:11;31.50;98.30
23116;DHT22;11727;52.134;5.052;2023-06-10T15:27:36;31.40;98.20
23116;DHT22;11727;52.134;5.052;2023-06-10T15:30:03;31.50;97.70
23116;DHT22;11727;52.134;5.052;2023-06-10T15:32:28;31.50;97.80
23116;DHT22;11727;52.134;5.052;2023-06-10T15:34:54;31.60;97.30
23116;DHT22;11727;52.134;5.052;2023-06-10T15:37:20;31.70;97.90
23116;DHT22;11727;52.134;5.052;2023-06-10T15:39:46;31.70;97.60